Kanazawa — JD3990 — position and weather

sailwx.info

Track history (hours):
 
Tides and Currents Weather Stations Pressure Air Temp Water Temp Dewpoint Dewpoint Depression Visibility Wind Speed Wind Dir Waves Ship Positions

Kanazawa

Last reported at 2018-Feb-21 19:12 UTC. Time now 2018-Feb-21 19:53 UTC.
Position N 34°02' E 131°47'.

Length 75 m; draft 4.6 m.

Type: Cargo ship. MMSI: 431007657.

Date/timePositionNaut miles runAvg speedWind from/ knotsBaromVisibWave heightAir tempDewpointWater temp
2018-Feb-21 19:12N 34°02' E 131°47'0 0.0
2018-Feb-21 18:54N 34°02' E 131°47'0 0.0
2018-Feb-21 18:12N 34°02' E 131°47'0 0.0
2018-Feb-21 17:24N 34°02' E 131°47'0 0.0
2018-Feb-21 15:00N 34°02' E 131°47'0 0.0
2018-Feb-21 13:00N 34°02' E 131°47'0 0.0
2018-Feb-21 12:12N 34°02' E 131°47'1 3.0
2018-Feb-21 11:59N 34°02' E 131°46'510.1
2018-Feb-21 11:29N 33°57' E 131°47'712.4
2018-Feb-21 10:54N 33°52' E 131°54'512.2
2018-Feb-21 10:30N 33°49' E 131°58'610.9
2018-Feb-21 09:59N 33°46' E 132°04'811.5
2018-Feb-21 09:17N 33°53' E 132°09'412.9
2018-Feb-21 09:00N 33°57' E 132°09'712.8
2018-Feb-21 08:28N 34°01' E 132°16'612.0
2018-Feb-21 07:58N 34°04' E 132°21'611.9
2018-Feb-21 07:30N 34°07' E 132°27'510.8
2018-Feb-21 07:00N 34°12' E 132°30'2 0.7
2018-Feb-21 04:12N 34°13' E 132°32'0 0.0
2018-Feb-21 04:00N 34°13' E 132°32'0 0.1
2018-Feb-21 02:35N 34°13' E 132°32'0 0.7
2018-Feb-21 02:30N 34°13' E 132°32'510.5
2018-Feb-21 02:00N 34°08' E 132°29'612.9
2018-Feb-21 01:30N 34°05' E 132°23'612.6
2018-Feb-21 01:00N 34°01' E 132°16'813.0
2018-Feb-21 00:23N 33°56' E 132°09'513.3
2018-Feb-20 23:59N 33°51' E 132°10'613.0
2018-Feb-20 23:29N 33°46' E 132°04'510.8
2018-Feb-20 23:00N 33°49' E 131°58'612.7
2018-Feb-20 22:30N 33°53' E 131°53'612.7
2018-Feb-20 22:00N 33°57' E 131°47'6 0.2
2018-Feb-19 22:11N 34°03' E 131°48'0 0.7
2018-Feb-19 22:00N 34°03' E 131°48'1 0.1
2018-Feb-19 13:51N 34°03' E 131°47'1 1.6
2018-Feb-19 13:30N 34°03' E 131°47'0 0.4
2018-Feb-19 12:28N 34°03' E 131°47'0 0.0
2018-Feb-19 11:58N 34°03' E 131°47'0 0.0
2018-Feb-19 08:37N 34°03' E 131°47'0 0.5
2018-Feb-19 08:30N 34°03' E 131°47'510.0
2018-Feb-19 08:00N 33°58' E 131°46'612.1
2018-Feb-19 07:29N 33°53' E 131°52'612.2
2018-Feb-19 07:00N 33°50' E 131°57'612.0
2018-Feb-19 06:30N 33°46' E 132°03'713.2
2018-Feb-19 05:58N 33°49' E 132°10'612.7
2018-Feb-19 05:29N 33°50' E 132°17'912.4
2018-Feb-19 04:48N 33°53' E 132°27'613.1
2018-Feb-19 04:21N 33°57' E 132°32'412.3
2018-Feb-19 04:00N 33°60' E 132°36'612.2
2018-Feb-19 03:31N 34°03' E 132°42'7210.8
2018-Feb-18 20:48N 34°27' E 134°05'311.2
2018-Feb-18 20:30N 34°26' E 134°09'610.6
2018-Feb-18 19:57N 34°25' E 134°16'511.3
2018-Feb-18 19:30N 34°26' E 134°22'611.8
2018-Feb-18 19:00N 34°29' E 134°28'611.8
2018-Feb-18 18:30N 34°32' E 134°34'611.7
2018-Feb-18 18:00N 34°35' E 134°40'611.8
2018-Feb-18 17:31N 34°39' E 134°45'510.1
2018-Feb-18 17:00N 34°42' E 134°50'0 0.0
2018-Feb-18 12:10N 34°42' E 134°50'0 0.0
2018-Feb-18 12:00N 34°42' E 134°50'2 3.5
2018-Feb-18 11:30N 34°41' E 134°49'612.3
2018-Feb-18 11:00N 34°37' E 134°43'612.9
2018-Feb-18 10:30N 34°34' E 134°36'713.1
2018-Feb-18 10:00N 34°30' E 134°30'612.9
2018-Feb-18 09:30N 34°26' E 134°23'612.1
2018-Feb-18 09:00N 34°24' E 134°17'7912.6
2018-Feb-18 02:41N 34°04' E 132°44'313.5
2018-Feb-18 02:30N 34°03' E 132°41'813.3
2018-Feb-18 01:54N 33°58' E 132°33'513.3
2018-Feb-18 01:29N 33°54' E 132°28'714.0
2018-Feb-18 01:00N 33°50' E 132°22'813.7
2018-Feb-18 00:26N 33°49' E 132°12'713.7
2018-Feb-17 23:55N 33°46' E 132°05'511.1
2018-Feb-17 23:30N 33°48' E 131°59'612.3
2018-Feb-17 22:59N 33°52' E 131°54'612.2
2018-Feb-17 22:30N 33°56' E 131°48'510.6
2018-Feb-17 22:00N 34°01' E 131°46'3 0.4
2018-Feb-17 14:23N 34°03' E 131°47'1 1.3
2018-Feb-17 13:59N 34°03' E 131°47'0 0.7
2018-Feb-17 13:28N 34°03' E 131°47'2 4.2
2018-Feb-17 13:00N 34°01' E 131°46'4 7.1
2018-Feb-17 12:30N 33°57' E 131°46'612.1
2018-Feb-17 11:59N 33°53' E 131°52'611.9
2018-Feb-17 11:30N 33°50' E 131°57'611.9
2018-Feb-17 11:00N 33°46' E 132°03'711.8
2018-Feb-17 10:24N 33°49' E 132°10'511.3
2018-Feb-17 09:58N 33°50' E 132°16'511.3
2018-Feb-17 09:30N 33°51' E 132°22'611.5
2018-Feb-17 08:59N 33°54' E 132°28'812.2
2018-Feb-17 08:21N 33°59' E 132°35'412.3
2018-Feb-17 08:00N 34°02' E 132°39'7811.4
2018-Feb-17 01:12N 34°26' E 134°09'412.3
2018-Feb-17 00:53N 34°25' E 134°13'511.9
2018-Feb-17 00:30N 34°23' E 134°18'611.2
2018-Feb-17 00:00N 34°21' E 134°24'611.2
2018-Feb-16 23:30N 34°19' E 134°30'611.3
2018-Feb-16 22:59N 34°16' E 134°37'912.2
2018-Feb-16 22:15N 34°10' E 134°44'311.0
2018-Feb-16 22:00N 34°08' E 134°47'611.4
2018-Feb-16 21:30N 34°03' E 134°51'611.3
2018-Feb-16 21:00N 33°59' E 134°55'612.0
2018-Feb-16 20:30N 33°54' E 134°60'612.0
2018-Feb-16 20:00N 33°50' E 135°05'13910.3
2018-Feb-16 06:30N 34°26' E 137°47'2211.7
2018-Feb-16 04:36N 34°29' E 138°14'311.1
2018-Feb-16 04:20N 34°30' E 138°17'411.0
2018-Feb-16 04:00N 34°31' E 138°22'611.9
2018-Feb-16 03:28N 34°32' E 138°29'711.9
2018-Feb-16 02:54N 34°33' E 138°37'511.6
2018-Feb-16 02:30N 34°34' E 138°43'612.5
2018-Feb-16 02:00N 34°35' E 138°50'611.5
2018-Feb-16 01:29N 34°36' E 138°57'612.0
2018-Feb-16 01:00N 34°40' E 139°03'710.9
2018-Feb-16 00:19N 34°44' E 139°11'310.8
2018-Feb-16 00:00N 34°46' E 139°14'810.9
2018-Feb-15 23:18N 34°49' E 139°23'412.2
2018-Feb-15 22:57N 34°49' E 139°28'512.0
2018-Feb-15 22:30N 34°49' E 139°34'611.1
2018-Feb-15 21:55N 34°50' E 139°42'1411.9
2018-Feb-15 20:43N 34°54' E 139°59'312.2
2018-Feb-15 20:29N 34°56' E 140°02'  
2018-Feb-11 23:25N 34°60' E 140°13'612.3
2018-Feb-11 22:58N 34°57' E 140°07'1711.8
2018-Feb-11 21:31N 34°50' E 139°48'088.6
2018-Feb-11 21:31N 34°50' E 139°48'913.5
2018-Feb-11 20:51N 34°50' E 139°37'514.1
2018-Feb-11 20:30N 34°51' E 139°31'713.6
2018-Feb-11 19:58N 34°50' E 139°22'613.9
2018-Feb-11 19:30N 34°47' E 139°15'  
Track history (hours):
 
Tides and Currents Weather Stations Pressure Air Temp Water Temp Dewpoint Dewpoint Depression Visibility Wind Speed Wind Dir Waves Ship Positions

Kanazawa

Last reported at 2018-Feb-21 19:12 UTC. Time now 2018-Feb-21 19:53 UTC.
Position N 34°02' E 131°47'.

Length 75 m; draft 4.6 m.

Type: Cargo ship. MMSI: 431007657.

Date/timePositionNaut miles runAvg speedWind from/ knotsBaromVisibWave heightAir tempDewpointWater temp
2018-Feb-21 19:12N 34°02' E 131°47'0 0.0
2018-Feb-21 18:54N 34°02' E 131°47'0 0.0
2018-Feb-21 18:12N 34°02' E 131°47'0 0.0
2018-Feb-21 17:24N 34°02' E 131°47'0 0.0
2018-Feb-21 15:00N 34°02' E 131°47'0 0.0
2018-Feb-21 13:00N 34°02' E 131°47'0 0.0
2018-Feb-21 12:12N 34°02' E 131°47'1 3.0
2018-Feb-21 11:59N 34°02' E 131°46'510.1
2018-Feb-21 11:29N 33°57' E 131°47'712.4
2018-Feb-21 10:54N 33°52' E 131°54'512.2
2018-Feb-21 10:30N 33°49' E 131°58'610.9
2018-Feb-21 09:59N 33°46' E 132°04'811.5
2018-Feb-21 09:17N 33°53' E 132°09'412.9
2018-Feb-21 09:00N 33°57' E 132°09'712.8
2018-Feb-21 08:28N 34°01' E 132°16'612.0
2018-Feb-21 07:58N 34°04' E 132°21'611.9
2018-Feb-21 07:30N 34°07' E 132°27'510.8
2018-Feb-21 07:00N 34°12' E 132°30'2 0.7
2018-Feb-21 04:12N 34°13' E 132°32'0 0.0
2018-Feb-21 04:00N 34°13' E 132°32'0 0.1
2018-Feb-21 02:35N 34°13' E 132°32'0 0.7
2018-Feb-21 02:30N 34°13' E 132°32'510.5
2018-Feb-21 02:00N 34°08' E 132°29'612.9
2018-Feb-21 01:30N 34°05' E 132°23'612.6
2018-Feb-21 01:00N 34°01' E 132°16'813.0
2018-Feb-21 00:23N 33°56' E 132°09'513.3
2018-Feb-20 23:59N 33°51' E 132°10'613.0
2018-Feb-20 23:29N 33°46' E 132°04'510.8
2018-Feb-20 23:00N 33°49' E 131°58'612.7
2018-Feb-20 22:30N 33°53' E 131°53'612.7
2018-Feb-20 22:00N 33°57' E 131°47'6 0.2
2018-Feb-19 22:11N 34°03' E 131°48'0 0.7
2018-Feb-19 22:00N 34°03' E 131°48'1 0.1
2018-Feb-19 13:51N 34°03' E 131°47'1 1.6
2018-Feb-19 13:30N 34°03' E 131°47'0 0.4
2018-Feb-19 12:28N 34°03' E 131°47'0 0.0
2018-Feb-19 11:58N 34°03' E 131°47'0 0.0
2018-Feb-19 08:37N 34°03' E 131°47'0 0.5
2018-Feb-19 08:30N 34°03' E 131°47'510.0
2018-Feb-19 08:00N 33°58' E 131°46'612.1
2018-Feb-19 07:29N 33°53' E 131°52'612.2
2018-Feb-19 07:00N 33°50' E 131°57'612.0
2018-Feb-19 06:30N 33°46' E 132°03'713.2
2018-Feb-19 05:58N 33°49' E 132°10'612.7
2018-Feb-19 05:29N 33°50' E 132°17'912.4
2018-Feb-19 04:48N 33°53' E 132°27'613.1
2018-Feb-19 04:21N 33°57' E 132°32'412.3
2018-Feb-19 04:00N 33°60' E 132°36'612.2
2018-Feb-19 03:31N 34°03' E 132°42'7210.8
2018-Feb-18 20:48N 34°27' E 134°05'311.2
2018-Feb-18 20:30N 34°26' E 134°09'610.6
2018-Feb-18 19:57N 34°25' E 134°16'511.3
2018-Feb-18 19:30N 34°26' E 134°22'611.8
2018-Feb-18 19:00N 34°29' E 134°28'611.8
2018-Feb-18 18:30N 34°32' E 134°34'611.7
2018-Feb-18 18:00N 34°35' E 134°40'611.8
2018-Feb-18 17:31N 34°39' E 134°45'510.1
2018-Feb-18 17:00N 34°42' E 134°50'0 0.0
2018-Feb-18 12:10N 34°42' E 134°50'0 0.0
2018-Feb-18 12:00N 34°42' E 134°50'2 3.5
2018-Feb-18 11:30N 34°41' E 134°49'612.3
2018-Feb-18 11:00N 34°37' E 134°43'612.9
2018-Feb-18 10:30N 34°34' E 134°36'713.1
2018-Feb-18 10:00N 34°30' E 134°30'612.9
2018-Feb-18 09:30N 34°26' E 134°23'612.1
2018-Feb-18 09:00N 34°24' E 134°17'7912.6
2018-Feb-18 02:41N 34°04' E 132°44'313.5
2018-Feb-18 02:30N 34°03' E 132°41'813.3
2018-Feb-18 01:54N 33°58' E 132°33'513.3
2018-Feb-18 01:29N 33°54' E 132°28'714.0
2018-Feb-18 01:00N 33°50' E 132°22'813.7
2018-Feb-18 00:26N 33°49' E 132°12'713.7
2018-Feb-17 23:55N 33°46' E 132°05'511.1
2018-Feb-17 23:30N 33°48' E 131°59'612.3
2018-Feb-17 22:59N 33°52' E 131°54'612.2
2018-Feb-17 22:30N 33°56' E 131°48'510.6
2018-Feb-17 22:00N 34°01' E 131°46'3 0.4
2018-Feb-17 14:23N 34°03' E 131°47'1 1.3
2018-Feb-17 13:59N 34°03' E 131°47'0 0.7
2018-Feb-17 13:28N 34°03' E 131°47'2 4.2
2018-Feb-17 13:00N 34°01' E 131°46'4 7.1
2018-Feb-17 12:30N 33°57' E 131°46'612.1
2018-Feb-17 11:59N 33°53' E 131°52'611.9
2018-Feb-17 11:30N 33°50' E 131°57'611.9
2018-Feb-17 11:00N 33°46' E 132°03'711.8
2018-Feb-17 10:24N 33°49' E 132°10'511.3
2018-Feb-17 09:58N 33°50' E 132°16'511.3
2018-Feb-17 09:30N 33°51' E 132°22'611.5
2018-Feb-17 08:59N 33°54' E 132°28'812.2
2018-Feb-17 08:21N 33°59' E 132°35'412.3
2018-Feb-17 08:00N 34°02' E 132°39'7811.4
2018-Feb-17 01:12N 34°26' E 134°09'412.3
2018-Feb-17 00:53N 34°25' E 134°13'511.9
2018-Feb-17 00:30N 34°23' E 134°18'611.2
2018-Feb-17 00:00N 34°21' E 134°24'611.2
2018-Feb-16 23:30N 34°19' E 134°30'611.3
2018-Feb-16 22:59N 34°16' E 134°37'912.2
2018-Feb-16 22:15N 34°10' E 134°44'311.0
2018-Feb-16 22:00N 34°08' E 134°47'611.4
2018-Feb-16 21:30N 34°03' E 134°51'611.3
2018-Feb-16 21:00N 33°59' E 134°55'612.0
2018-Feb-16 20:30N 33°54' E 134°60'612.0
2018-Feb-16 20:00N 33°50' E 135°05'13910.3
2018-Feb-16 06:30N 34°26' E 137°47'2211.7
2018-Feb-16 04:36N 34°29' E 138°14'311.1
2018-Feb-16 04:20N 34°30' E 138°17'411.0
2018-Feb-16 04:00N 34°31' E 138°22'611.9
2018-Feb-16 03:28N 34°32' E 138°29'711.9
2018-Feb-16 02:54N 34°33' E 138°37'511.6
2018-Feb-16 02:30N 34°34' E 138°43'612.5
2018-Feb-16 02:00N 34°35' E 138°50'611.5
2018-Feb-16 01:29N 34°36' E 138°57'612.0
2018-Feb-16 01:00N 34°40' E 139°03'710.9
2018-Feb-16 00:19N 34°44' E 139°11'310.8
2018-Feb-16 00:00N 34°46' E 139°14'810.9
2018-Feb-15 23:18N 34°49' E 139°23'412.2
2018-Feb-15 22:57N 34°49' E 139°28'512.0
2018-Feb-15 22:30N 34°49' E 139°34'611.1
2018-Feb-15 21:55N 34°50' E 139°42'1411.9
2018-Feb-15 20:43N 34°54' E 139°59'312.2
2018-Feb-15 20:29N 34°56' E 140°02'  
2018-Feb-11 23:25N 34°60' E 140°13'612.3
2018-Feb-11 22:58N 34°57' E 140°07'1711.8
2018-Feb-11 21:31N 34°50' E 139°48'088.6
2018-Feb-11 21:31N 34°50' E 139°48'913.5
2018-Feb-11 20:51N 34°50' E 139°37'514.1
2018-Feb-11 20:30N 34°51' E 139°31'713.6
2018-Feb-11 19:58N 34°50' E 139°22'613.9
2018-Feb-11 19:30N 34°47' E 139°15'  

Dump ship's entire track history